createdAt,value
2023-02-12T20:28:15.297Z,63.49
2023-02-12T20:30:43.347Z,63.05
2023-02-12T20:33:10.736Z,62.44
2023-02-12T20:35:37.515Z,62.66
2023-02-12T20:38:05.364Z,63.25
2023-02-12T20:40:32.795Z,62.63
2023-02-12T20:43:00.823Z,63.46
2023-02-12T20:45:27.610Z,64.00
2023-02-12T20:47:54.072Z,64.97
2023-02-12T20:50:20.612Z,64.77
2023-02-12T20:52:47.226Z,65.46
2023-02-12T20:55:14.022Z,64.91
2023-02-12T20:57:40.640Z,65.17
2023-02-12T21:00:12.394Z,64.71
2023-02-12T21:02:39.214Z,64.27
2023-02-12T21:05:06.397Z,65.01
2023-02-12T21:07:33.470Z,65.55
2023-02-12T21:10:00.180Z,66.23
2023-02-12T21:12:26.651Z,66.35
2023-02-12T21:14:56.819Z,66.46
2023-02-12T21:17:23.387Z,66.74
2023-02-12T21:19:50.445Z,67.50
2023-02-12T21:22:17.213Z,66.76
2023-02-12T21:24:43.914Z,67.14
2023-02-12T21:27:10.453Z,66.24
2023-02-12T21:29:37.005Z,66.66
2023-02-12T21:32:03.940Z,67.06
2023-02-12T21:34:30.487Z,67.52
2023-02-12T21:36:57.116Z,67.05
2023-02-12T21:39:28.260Z,67.83
2023-02-12T21:41:57.883Z,67.25
2023-02-12T21:44:25.068Z,67.73
2023-02-12T21:46:52.100Z,66.95
2023-02-12T21:49:19.332Z,66.36
2023-02-12T21:51:45.814Z,67.13
2023-02-12T21:54:14.608Z,67.03
2023-02-12T21:56:42.970Z,66.10
2023-02-12T21:59:10.166Z,67.08
2023-02-12T22:01:39.434Z,68.19
2023-02-12T22:04:06.636Z,68.02
2023-02-12T22:06:37.388Z,67.48
2023-02-12T22:09:07.642Z,67.80
2023-02-12T22:11:35.566Z,67.89
2023-02-12T22:14:03.663Z,68.00
2023-02-12T22:16:30.817Z,67.74
2023-02-12T22:19:00.004Z,68.27
2023-02-12T22:21:28.442Z,68.49
2023-02-12T22:23:55.272Z,68.21
2023-02-12T22:26:27.111Z,67.81
2023-02-12T22:29:05.803Z,67.07
2023-02-12T22:31:34.720Z,67.02
2023-02-12T22:34:04.060Z,67.41
2023-02-12T22:36:30.902Z,67.79
2023-02-12T22:38:59.369Z,68.51
2023-02-12T22:41:27.303Z,68.28
2023-02-12T22:43:54.093Z,68.28
2023-02-12T22:46:20.786Z,68.61
2023-02-12T22:48:47.283Z,69.26
2023-02-12T22:51:19.387Z,68.85
2023-02-12T22:53:46.535Z,69.39
2023-02-12T22:56:13.529Z,69.79
2023-02-12T22:58:40.628Z,68.81
2023-02-12T23:01:09.889Z,69.60
2023-02-12T23:03:36.900Z,69.12
2023-02-12T23:06:05.454Z,69.26
2023-02-12T23:08:32.354Z,69.43
2023-02-12T23:10:59.341Z,69.35
2023-02-12T23:13:29.864Z,69.92
2023-02-12T23:15:57.137Z,69.76
2023-02-12T23:18:24.147Z,69.51
2023-02-12T23:20:52.014Z,69.65
2023-02-12T23:23:19.524Z,69.80
2023-02-12T23:25:46.356Z,69.45
2023-02-12T23:28:12.927Z,70.24
2023-02-12T23:30:39.898Z,69.89
2023-02-12T23:33:06.472Z,69.92
2023-02-12T23:35:32.944Z,70.20
2023-02-12T23:37:59.690Z,70.16
2023-02-12T23:40:26.190Z,70.61
2023-02-12T23:42:52.744Z,70.63
2023-02-12T23:45:19.201Z,70.58
2023-02-12T23:47:45.736Z,69.69
2023-02-12T23:50:12.421Z,70.19
2023-02-12T23:52:38.956Z,69.60
2023-02-12T23:55:05.906Z,68.41
2023-02-12T23:57:32.502Z,68.50
2023-02-12T23:59:58.994Z,68.38
